createdAt,value
2018-06-16T00:00:26.945Z,90.50
2018-06-16T00:02:54.801Z,90.50
2018-06-16T00:05:22.650Z,90.50
2018-06-16T00:07:50.542Z,90.60
2018-06-16T00:10:18.425Z,90.60
2018-06-16T00:12:46.338Z,90.80
2018-06-16T00:15:14.255Z,90.70
2018-06-16T00:17:42.142Z,90.80
2018-06-16T00:20:10.162Z,90.80
2018-06-16T00:22:38.148Z,90.80
2018-06-16T00:27:33.702Z,90.80
2018-06-16T00:30:01.560Z,90.90
2018-06-16T00:32:29.475Z,90.90
2018-06-16T00:34:57.375Z,90.90
2018-06-16T00:39:53.025Z,90.90
2018-06-16T00:42:20.883Z,90.90
2018-06-16T00:47:16.493Z,91.00
2018-06-16T00:49:44.339Z,91.00
2018-06-16T00:52:12.311Z,90.90
2018-06-16T00:54:40.151Z,90.90
2018-06-16T00:57:19.403Z,90.90
2018-06-16T00:59:47.250Z,91.00
2018-06-16T01:02:15.078Z,91.10
2018-06-16T01:04:42.965Z,91.30
2018-06-16T01:07:10.890Z,91.40
2018-06-16T01:09:38.734Z,91.60
2018-06-16T01:12:06.628Z,91.60
2018-06-16T01:14:34.485Z,91.60
2018-06-16T01:17:02.446Z,91.50
2018-06-16T01:19:30.547Z,91.50
2018-06-16T01:21:58.438Z,91.20
2018-06-16T01:24:26.310Z,91.00
2018-06-16T01:26:54.153Z,90.90
2018-06-16T01:31:50.598Z,90.80
2018-06-16T01:36:46.820Z,90.90
2018-06-16T01:39:14.649Z,90.80
2018-06-16T01:41:42.502Z,90.40
2018-06-16T01:44:10.385Z,90.60
2018-06-16T01:46:38.253Z,90.50
2018-06-16T01:49:06.094Z,90.50
2018-06-16T01:56:30.057Z,90.30
2018-06-16T01:58:57.928Z,90.50
2018-06-16T02:01:25.769Z,90.70
2018-06-16T02:03:53.675Z,90.50
2018-06-16T02:08:49.425Z,90.50
2018-06-16T02:11:17.259Z,90.40
2018-06-16T02:13:45.154Z,90.60
2018-06-16T02:16:13.665Z,90.60
2018-06-16T02:18:41.542Z,90.60
2018-06-16T02:21:09.467Z,90.60
2018-06-16T02:23:37.311Z,90.60
2018-06-16T02:26:05.156Z,90.60
2018-06-16T02:28:32.995Z,90.50
2018-06-16T02:31:00.883Z,90.50
2018-06-16T02:33:28.708Z,90.60
2018-06-16T02:38:24.291Z,90.60
2018-06-16T02:40:52.222Z,90.30
2018-06-16T02:43:20.106Z,89.70
2018-06-16T02:45:47.973Z,89.80
2018-06-16T02:48:15.900Z,90.10
2018-06-16T02:50:43.731Z,90.20
2018-06-16T02:53:11.578Z,90.40
2018-06-16T02:55:39.446Z,90.10
2018-06-16T02:58:07.280Z,90.10
2018-06-16T03:00:35.160Z,90.20
2018-06-16T03:05:30.746Z,90.30
2018-06-16T03:07:58.640Z,90.40
2018-06-16T03:12:54.225Z,90.60
2018-06-16T03:15:22.178Z,90.70
2018-06-16T03:17:50.011Z,90.60
2018-06-16T03:20:17.901Z,90.70
2018-06-16T03:22:45.730Z,90.70
2018-06-16T03:25:13.681Z,90.80
2018-06-16T03:27:41.519Z,90.40
2018-06-16T03:30:09.399Z,90.70
2018-06-16T03:32:37.239Z,90.60
2018-06-16T03:35:05.273Z,90.30
2018-06-16T03:37:33.107Z,90.50
2018-06-16T03:40:00.964Z,90.40
2018-06-16T03:42:28.851Z,90.60
2018-06-16T03:44:56.704Z,90.50
2018-06-16T03:47:25.207Z,90.60
2018-06-16T03:49:53.051Z,90.50
2018-06-16T03:52:21.617Z,90.60
2018-06-16T03:54:49.507Z,90.70
2018-06-16T03:57:17.360Z,90.90
2018-06-16T03:59:45.282Z,91.00
2018-06-16T04:04:40.876Z,91.00
2018-06-16T04:07:09.397Z,91.00
2018-06-16T04:09:37.239Z,91.00
2018-06-16T04:12:05.172Z,91.10
2018-06-16T04:14:33.030Z,91.20
2018-06-16T04:17:05.763Z,91.30
2018-06-16T04:22:01.358Z,91.50
2018-06-16T04:24:29.191Z,91.70
2018-06-16T04:26:57.020Z,91.80
2018-06-16T04:29:24.958Z,91.90
2018-06-16T04:31:52.851Z,91.70
2018-06-16T04:34:20.677Z,91.60
2018-06-16T04:36:48.524Z,91.80
2018-06-16T04:39:16.408Z,91.90
2018-06-16T04:41:44.303Z,92.00
2018-06-16T04:44:12.172Z,92.00
2018-06-16T04:46:40.154Z,92.10
2018-06-16T04:51:35.994Z,92.30
2018-06-16T04:54:03.924Z,92.20
2018-06-16T04:56:32.018Z,92.40
2018-06-16T04:59:00.308Z,92.60
2018-06-16T05:01:28.152Z,92.60
2018-06-16T05:03:56.018Z,92.60
2018-06-16T05:06:23.897Z,92.70
2018-06-16T05:08:51.769Z,92.60
2018-06-16T05:11:19.629Z,92.50
2018-06-16T05:13:48.839Z,92.40
2018-06-16T05:16:16.815Z,92.20
2018-06-16T05:21:12.696Z,92.10
2018-06-16T05:23:40.571Z,91.70
2018-06-16T05:26:08.472Z,91.70
2018-06-16T05:28:36.364Z,91.10
2018-06-16T05:33:32.525Z,91.00
2018-06-16T05:36:00.374Z,91.00
2018-06-16T05:38:28.266Z,90.10
2018-06-16T05:40:56.124Z,90.30
2018-06-16T05:43:24.126Z,88.40
2018-06-16T05:45:52.056Z,88.70
2018-06-16T05:48:20.791Z,88.60
2018-06-16T05:50:48.673Z,89.30
2018-06-16T05:53:16.637Z,89.60
2018-06-16T05:55:44.498Z,89.00
2018-06-16T05:58:13.209Z,88.50
2018-06-16T06:00:41.066Z,87.10
2018-06-16T06:03:08.928Z,87.00
2018-06-16T06:05:36.811Z,85.90
2018-06-16T06:08:04.776Z,86.20
2018-06-16T06:10:32.820Z,85.20
2018-06-16T06:13:00.718Z,84.30
2018-06-16T06:15:28.731Z,84.40
2018-06-16T06:17:56.560Z,83.30
2018-06-16T06:20:24.398Z,81.70
2018-06-16T06:22:52.242Z,81.80
2018-06-16T06:25:20.181Z,79.70
2018-06-16T06:27:48.791Z,81.20
2018-06-16T06:30:16.658Z,80.80
2018-06-16T06:32:44.504Z,80.30
2018-06-16T06:35:12.331Z,80.00
2018-06-16T06:37:40.386Z,80.50
2018-06-16T06:42:35.991Z,79.40
2018-06-16T06:45:04.246Z,79.60
2018-06-16T06:48:51.568Z,78.00
2018-06-16T06:51:19.499Z,79.10
2018-06-16T06:53:47.338Z,80.60
2018-06-16T06:56:15.840Z,79.00
2018-06-16T06:58:43.752Z,77.70
2018-06-16T07:01:11.655Z,78.60
2018-06-16T07:03:39.930Z,77.20
2018-06-16T07:06:07.821Z,77.40
2018-06-16T07:08:35.672Z,77.30
2018-06-16T07:11:03.559Z,77.60
2018-06-16T07:13:31.438Z,76.00
2018-06-16T07:15:59.293Z,76.30
2018-06-16T07:18:27.156Z,76.60
2018-06-16T07:20:55.371Z,77.00
2018-06-16T07:25:51.488Z,76.60
2018-06-16T07:28:20.344Z,76.20
2018-06-16T07:30:48.244Z,75.90
2018-06-16T07:33:16.803Z,75.80
2018-06-16T07:35:44.678Z,75.60
2018-06-16T07:38:12.568Z,74.00
2018-06-16T07:40:40.388Z,74.80
2018-06-16T07:43:08.273Z,74.30
2018-06-16T07:45:36.098Z,74.70
2018-06-16T07:48:04.148Z,73.80
2018-06-16T07:50:32.094Z,74.50
2018-06-16T07:53:00.088Z,74.00
2018-06-16T07:57:55.647Z,73.70
2018-06-16T08:00:23.526Z,72.10
2018-06-16T08:02:51.405Z,72.10
2018-06-16T08:05:19.259Z,71.30
2018-06-16T08:07:47.111Z,71.30
2018-06-16T08:10:14.957Z,71.60
2018-06-16T08:12:42.858Z,71.80
2018-06-16T08:15:10.755Z,72.90
2018-06-16T08:17:38.632Z,73.70
2018-06-16T08:20:06.547Z,72.70
2018-06-16T08:22:34.424Z,74.30
2018-06-16T08:25:03.517Z,73.80
2018-06-16T08:27:31.406Z,72.90
2018-06-16T08:29:59.622Z,71.80
2018-06-16T08:32:27.613Z,70.80
2018-06-16T08:37:23.231Z,69.50
2018-06-16T08:39:51.664Z,69.80
2018-06-16T08:42:20.170Z,70.10
2018-06-16T08:44:48.745Z,72.40
2018-06-16T08:47:17.448Z,69.00
2018-06-16T08:52:13.851Z,65.30
2018-06-16T08:54:43.058Z,66.80
2018-06-16T08:57:11.440Z,64.80
2018-06-16T08:59:39.316Z,66.20
2018-06-16T09:02:07.230Z,67.70
2018-06-16T09:07:02.796Z,68.20
2018-06-16T09:09:31.614Z,67.10
2018-06-16T09:11:59.492Z,67.60
2018-06-16T09:16:55.056Z,69.50
2018-06-16T09:19:23.893Z,66.80
2018-06-16T09:21:51.741Z,66.80
2018-06-16T09:24:19.630Z,67.50
2018-06-16T09:29:16.783Z,66.80
2018-06-16T09:31:44.698Z,67.00
2018-06-16T09:34:12.569Z,68.90
2018-06-16T09:36:40.449Z,63.70
2018-06-16T09:41:38.020Z,62.80
2018-06-16T09:46:34.706Z,66.40
2018-06-16T09:49:02.573Z,65.30
2018-06-16T09:51:30.624Z,66.20
2018-06-16T09:56:26.254Z,61.50
2018-06-16T10:01:21.987Z,60.90
2018-06-16T10:03:50.026Z,61.10
2018-06-16T10:08:45.647Z,65.00
2018-06-16T10:13:41.326Z,63.60
2018-06-16T10:18:38.536Z,62.70
2018-06-16T10:26:02.274Z,65.90
2018-06-16T10:28:30.111Z,62.10
2018-06-16T10:30:58.000Z,62.70
2018-06-16T10:33:25.837Z,64.80
2018-06-16T10:35:53.686Z,59.50
2018-06-16T10:38:21.555Z,61.00
2018-06-16T10:40:49.423Z,59.10
2018-06-16T10:43:17.404Z,60.00
2018-06-16T10:45:45.285Z,59.00
2018-06-16T10:48:15.724Z,55.60
2018-06-16T10:50:43.777Z,57.20
2018-06-16T10:53:11.798Z,57.40
2018-06-16T10:55:40.329Z,58.50
2018-06-16T10:58:08.824Z,61.90
2018-06-16T11:00:36.700Z,62.30
2018-06-16T11:03:06.643Z,61.40
2018-06-16T11:10:30.101Z,62.50
2018-06-16T11:12:57.945Z,63.00
2018-06-16T11:15:26.676Z,63.80
2018-06-16T11:17:55.971Z,62.50
2018-06-16T11:22:51.573Z,61.30
2018-06-16T11:25:19.505Z,63.20
2018-06-16T11:27:47.386Z,61.40
2018-06-16T11:30:15.257Z,60.70
2018-06-16T11:32:43.125Z,61.20
2018-06-16T11:35:10.985Z,62.30
2018-06-16T11:37:38.849Z,63.20
2018-06-16T11:40:07.085Z,59.90
2018-06-16T11:45:03.795Z,64.00
2018-06-16T11:47:31.679Z,62.80
2018-06-16T11:49:59.529Z,61.80
2018-06-16T11:52:27.402Z,63.30
2018-06-16T11:54:57.012Z,61.90
2018-06-16T11:57:26.649Z,61.40
2018-06-16T12:02:22.479Z,63.20
2018-06-16T12:04:50.366Z,60.10
2018-06-16T12:07:18.208Z,59.20
2018-06-16T12:09:46.077Z,60.00
2018-06-16T12:12:15.330Z,58.80
2018-06-16T12:14:43.832Z,58.10
2018-06-16T12:17:12.391Z,58.50
2018-06-16T12:19:40.294Z,61.30
2018-06-16T12:22:11.860Z,62.30
2018-06-16T12:24:40.045Z,61.90
2018-06-16T12:27:07.898Z,62.00
2018-06-16T12:32:14.668Z,60.90
2018-06-16T12:34:42.550Z,58.40
2018-06-16T12:37:10.940Z,58.00
2018-06-16T12:39:39.090Z,60.20
2018-06-16T12:42:08.254Z,59.80
2018-06-16T12:47:04.242Z,58.90
2018-06-16T12:49:32.108Z,57.40
2018-06-16T12:51:59.994Z,58.50
2018-06-16T12:54:28.500Z,59.20
2018-06-16T12:56:57.196Z,59.60
2018-06-16T12:59:24.997Z,57.20
2018-06-16T13:01:52.841Z,57.20
2018-06-16T13:06:48.495Z,60.60
2018-06-16T13:09:16.365Z,58.30
2018-06-16T13:11:44.793Z,61.50
2018-06-16T13:14:12.659Z,61.40
2018-06-16T13:16:40.577Z,61.30
2018-06-16T13:19:08.453Z,61.30
2018-06-16T13:21:36.411Z,62.50
2018-06-16T13:24:04.311Z,61.90
2018-06-16T13:26:32.174Z,62.50
2018-06-16T13:29:00.063Z,63.40
2018-06-16T13:31:27.927Z,62.70
2018-06-16T13:33:55.797Z,62.90
2018-06-16T13:36:23.643Z,62.70
2018-06-16T13:38:51.512Z,63.10
2018-06-16T13:41:19.397Z,63.60
2018-06-16T13:43:47.248Z,63.90
2018-06-16T13:46:15.818Z,62.20
2018-06-16T13:48:43.710Z,59.30
2018-06-16T13:56:07.385Z,59.80
2018-06-16T13:58:35.408Z,60.00
2018-06-16T14:01:03.352Z,55.90
2018-06-16T14:10:54.784Z,55.70
2018-06-16T14:13:22.676Z,56.10
2018-06-16T14:15:50.567Z,55.70
2018-06-16T14:18:18.606Z,57.30
2018-06-16T14:20:46.472Z,56.80
2018-06-16T14:23:14.348Z,55.00
2018-06-16T14:25:42.435Z,55.80
2018-06-16T14:30:38.754Z,55.90
2018-06-16T14:33:06.681Z,56.80
2018-06-16T14:35:34.502Z,59.00
2018-06-16T14:38:03.198Z,58.50
2018-06-16T14:40:31.190Z,57.40
2018-06-16T14:42:59.066Z,57.30
2018-06-16T14:45:27.479Z,57.80
2018-06-16T14:47:56.447Z,58.40
2018-06-16T14:52:52.206Z,56.90
2018-06-16T14:55:20.826Z,57.40
2018-06-16T14:57:48.819Z,57.50
2018-06-16T15:00:16.693Z,60.20
2018-06-16T15:05:12.311Z,62.20
2018-06-16T15:07:41.040Z,58.90
2018-06-16T15:10:08.907Z,58.50
2018-06-16T15:12:36.745Z,59.80
2018-06-16T15:17:32.311Z,59.20
2018-06-16T15:20:00.180Z,59.10
2018-06-16T15:22:28.196Z,58.50
2018-06-16T15:24:56.042Z,59.00
2018-06-16T15:27:23.904Z,61.40
2018-06-16T15:29:51.741Z,59.90
2018-06-16T15:32:19.642Z,58.10
2018-06-16T15:34:47.539Z,58.00
2018-06-16T15:39:43.084Z,59.00
2018-06-16T15:44:39.988Z,60.40
2018-06-16T15:47:07.860Z,58.90
2018-06-16T15:49:35.932Z,59.00
2018-06-16T15:52:04.432Z,58.80
2018-06-16T15:54:32.292Z,60.00
2018-06-16T15:57:00.288Z,61.20
2018-06-16T15:59:28.197Z,60.60
2018-06-16T16:01:56.056Z,61.50
2018-06-16T16:04:24.415Z,59.50
2018-06-16T16:06:52.276Z,60.60
2018-06-16T16:09:20.119Z,61.40
2018-06-16T16:11:47.989Z,60.20
2018-06-16T16:16:43.622Z,62.30
2018-06-16T16:19:11.507Z,61.70
2018-06-16T16:21:39.370Z,61.60
2018-06-16T16:26:35.309Z,61.90
2018-06-16T16:29:03.217Z,61.90
2018-06-16T16:31:31.097Z,60.80
2018-06-16T16:33:59.066Z,59.00
2018-06-16T16:36:27.288Z,61.10
2018-06-16T16:46:18.459Z,63.90
2018-06-16T16:48:46.738Z,60.50
2018-06-16T16:53:42.421Z,63.00
2018-06-16T16:56:10.379Z,65.50
2018-06-16T16:58:38.263Z,63.70
2018-06-16T17:01:06.184Z,63.60
2018-06-16T17:03:34.097Z,62.60
2018-06-16T17:06:02.123Z,62.00
2018-06-16T17:08:30.020Z,61.30
2018-06-16T17:10:58.028Z,62.90
2018-06-16T17:13:25.902Z,61.00
2018-06-16T17:15:53.771Z,61.10
2018-06-16T17:18:22.379Z,61.60
2018-06-16T17:20:50.248Z,63.10
2018-06-16T17:25:46.383Z,64.10
2018-06-16T17:33:09.737Z,59.00
2018-06-16T17:35:38.191Z,59.00
2018-06-16T17:38:06.383Z,59.50
2018-06-16T17:40:34.271Z,60.90
2018-06-16T17:43:02.141Z,61.30
2018-06-16T17:45:29.979Z,61.90
2018-06-16T17:47:58.475Z,62.00
2018-06-16T17:50:26.348Z,62.90
2018-06-16T17:52:54.315Z,60.90
2018-06-16T17:55:22.251Z,61.20
2018-06-16T17:57:51.055Z,61.00
2018-06-16T18:00:18.954Z,60.90
2018-06-16T18:05:14.987Z,61.20
2018-06-16T18:07:42.888Z,61.30
2018-06-16T18:10:10.740Z,60.30
2018-06-16T18:12:38.595Z,60.10
2018-06-16T18:17:35.471Z,60.60
2018-06-16T18:20:03.568Z,61.60
2018-06-16T18:24:59.138Z,61.90
2018-06-16T18:27:27.009Z,62.10
2018-06-16T18:29:54.887Z,62.60
2018-06-16T18:32:23.110Z,63.60
2018-06-16T18:34:51.000Z,62.70
2018-06-16T18:39:46.688Z,66.20
2018-06-16T18:44:42.355Z,68.80
2018-06-16T18:47:10.440Z,71.20
2018-06-16T18:49:38.293Z,71.60
2018-06-16T18:52:06.330Z,71.70
2018-06-16T18:57:01.906Z,72.80
2018-06-16T18:59:29.745Z,73.00
2018-06-16T19:04:26.204Z,73.70
2018-06-16T19:06:54.049Z,73.80
2018-06-16T19:14:17.497Z,71.70
2018-06-16T19:16:45.700Z,71.20
2018-06-16T19:19:13.717Z,71.00
2018-06-16T19:21:42.224Z,70.60
2018-06-16T19:24:10.115Z,70.60
2018-06-16T19:26:38.226Z,70.50
2018-06-16T19:29:06.090Z,71.20
2018-06-16T19:31:34.043Z,72.20
2018-06-16T19:38:58.206Z,75.30
2018-06-16T19:41:26.081Z,75.60
2018-06-16T19:43:54.211Z,76.30
2018-06-16T19:46:22.188Z,77.00
2018-06-16T19:48:50.674Z,77.10
2018-06-16T19:51:18.581Z,77.10
2018-06-16T19:53:46.538Z,77.80
2018-06-16T19:56:14.427Z,78.10
2018-06-16T19:58:42.869Z,78.60
2018-06-16T20:01:10.774Z,79.10
2018-06-16T20:03:38.994Z,79.40
2018-06-16T20:06:07.510Z,79.60
2018-06-16T20:08:35.438Z,80.30
2018-06-16T20:11:05.359Z,78.90
2018-06-16T20:13:34.077Z,78.80
2018-06-16T20:16:02.972Z,79.50
2018-06-16T20:18:30.882Z,79.90
2018-06-16T20:25:54.427Z,81.50
2018-06-16T20:28:22.368Z,81.90
2018-06-16T20:30:50.886Z,81.90
2018-06-16T20:33:18.733Z,82.00
2018-06-16T20:35:46.573Z,81.50
2018-06-16T20:38:14.486Z,81.60
2018-06-16T20:40:42.380Z,81.60
2018-06-16T20:43:10.296Z,81.70
2018-06-16T20:45:38.309Z,81.50
2018-06-16T20:48:06.993Z,81.80
2018-06-16T20:50:34.932Z,81.90
2018-06-16T20:53:02.830Z,82.80
2018-06-16T20:55:30.762Z,82.80
2018-06-16T20:57:58.827Z,83.20
2018-06-16T21:00:26.742Z,83.40
2018-06-16T21:02:54.651Z,83.40
2018-06-16T21:10:18.953Z,82.80
2018-06-16T21:12:46.799Z,83.20
2018-06-16T21:15:14.671Z,83.10
2018-06-16T21:17:42.546Z,83.40
2018-06-16T21:20:10.455Z,83.40
2018-06-16T21:22:38.392Z,84.20
2018-06-16T21:25:06.233Z,84.30
2018-06-16T21:27:34.113Z,84.20
2018-06-16T21:32:29.841Z,84.70
2018-06-16T21:34:57.700Z,84.90
2018-06-16T21:37:25.544Z,84.80
2018-06-16T21:39:53.671Z,84.80
2018-06-16T21:42:21.537Z,85.10
2018-06-16T21:44:49.492Z,85.40
2018-06-16T21:47:18.044Z,85.60
2018-06-16T21:49:45.901Z,85.80
2018-06-16T21:52:13.824Z,86.00
2018-06-16T21:54:42.684Z,86.10
2018-06-16T21:57:10.532Z,85.60
2018-06-16T21:59:38.386Z,86.00
2018-06-16T22:02:06.432Z,85.90
2018-06-16T22:04:34.501Z,85.60
2018-06-16T22:07:02.342Z,86.30
2018-06-16T22:09:31.031Z,86.00
2018-06-16T22:14:26.634Z,85.90
2018-06-16T22:16:54.611Z,86.10
2018-06-16T22:19:22.499Z,86.50
2018-06-16T22:24:18.797Z,87.50
2018-06-16T22:26:46.745Z,87.90
2018-06-16T22:29:14.647Z,87.80
2018-06-16T22:31:42.572Z,88.20
2018-06-16T22:36:38.375Z,88.30
2018-06-16T22:39:09.510Z,88.60
2018-06-16T22:41:37.357Z,88.40
2018-06-16T22:44:05.759Z,88.40
2018-06-16T22:46:34.279Z,89.20
2018-06-16T22:51:29.884Z,88.80
2018-06-16T22:53:58.379Z,89.00
2018-06-16T22:56:26.438Z,89.30
2018-06-16T22:58:54.367Z,89.10
2018-06-16T23:01:22.243Z,89.10
2018-06-16T23:03:50.327Z,89.20
2018-06-16T23:08:45.939Z,89.60
2018-06-16T23:11:13.937Z,90.00
2018-06-16T23:13:41.820Z,89.90
2018-06-16T23:16:09.749Z,89.80
2018-06-16T23:18:37.659Z,89.70
2018-06-16T23:21:05.646Z,89.90
2018-06-16T23:23:33.548Z,90.00
2018-06-16T23:26:01.987Z,89.90
2018-06-16T23:28:29.923Z,90.00
2018-06-16T23:33:25.588Z,90.10
2018-06-16T23:35:53.568Z,90.20
2018-06-16T23:43:16.902Z,90.10
2018-06-16T23:45:44.750Z,90.10
2018-06-16T23:48:12.577Z,90.20
2018-06-16T23:50:40.431Z,90.10
2018-06-16T23:53:08.734Z,90.00
2018-06-16T23:55:36.602Z,90.10
2018-06-16T23:58:04.534Z,90.20
